createdAt,value
2023-03-05T00:01:35.675Z,3.17
2023-03-05T00:04:38.455Z,3.15
2023-03-05T00:07:40.764Z,3.36
2023-03-05T00:10:43.520Z,3.38
2023-03-05T00:13:46.344Z,3.42
2023-03-05T00:16:49.081Z,3.42
2023-03-05T00:19:51.552Z,3.24
2023-03-05T00:22:54.214Z,3.34
2023-03-05T00:25:56.671Z,3.36
2023-03-05T00:28:59.450Z,3.35
2023-03-05T00:32:01.916Z,3.39
2023-03-05T00:35:05.061Z,3.36
2023-03-05T00:38:07.447Z,3.42
2023-03-05T00:41:10.169Z,3.41
2023-03-05T00:44:13.066Z,3.35
2023-03-05T00:47:18.446Z,3.36
2023-03-05T00:50:20.849Z,3.33
2023-03-05T00:53:23.851Z,3.24
2023-03-05T00:56:28.344Z,3.33
2023-03-05T00:59:31.348Z,3.07
2023-03-05T01:02:34.794Z,3.21
2023-03-05T01:05:38.122Z,3.10
2023-03-05T01:08:40.742Z,3.18
2023-03-05T01:11:43.418Z,3.22
2023-03-05T01:14:45.891Z,3.24
2023-03-05T01:17:48.628Z,3.38
2023-03-05T01:20:51.137Z,3.32
2023-03-05T01:23:53.903Z,3.27
2023-03-05T01:26:56.196Z,3.19
2023-03-05T01:29:59.177Z,3.28
2023-03-05T01:33:02.269Z,3.13
2023-03-05T01:36:13.371Z,3.31
2023-03-05T01:39:16.514Z,3.08
2023-03-05T01:42:21.081Z,3.05
2023-03-05T01:45:23.447Z,3.07
2023-03-05T01:48:26.691Z,2.98
2023-03-05T01:51:35.416Z,3.12
2023-03-05T01:54:48.959Z,3.19
2023-03-05T01:57:57.767Z,3.11
2023-03-05T02:01:01.862Z,3.15
2023-03-05T02:04:07.239Z,3.18
2023-03-05T02:07:10.783Z,3.01
2023-03-05T02:10:22.658Z,3.21
2023-03-05T02:13:29.527Z,3.15
2023-03-05T02:16:36.810Z,3.25
2023-03-05T02:20:02.328Z,3.34
2023-03-05T02:23:05.125Z,3.32
2023-03-05T02:26:10.039Z,3.32
2023-03-05T02:29:19.275Z,3.26
2023-03-05T02:32:21.809Z,3.16
2023-03-05T02:35:25.324Z,3.32
2023-03-05T02:38:28.030Z,3.30
2023-03-05T02:41:30.784Z,3.42
2023-03-05T02:44:33.541Z,3.41
2023-03-05T02:47:36.161Z,3.36
2023-03-05T02:50:39.855Z,3.32
2023-03-05T02:53:42.726Z,3.37
2023-03-05T02:56:45.574Z,3.48
2023-03-05T02:59:48.515Z,3.38
2023-03-05T03:02:51.456Z,3.44
2023-03-05T03:05:54.166Z,3.44
2023-03-05T03:08:57.436Z,3.22
2023-03-05T03:12:00.018Z,3.30
2023-03-05T03:15:02.502Z,3.30
2023-03-05T03:18:05.253Z,3.31
2023-03-05T03:21:07.840Z,3.30
2023-03-05T03:24:10.522Z,3.23
2023-03-05T03:27:12.909Z,3.29
2023-03-05T03:30:16.224Z,3.36
2023-03-05T03:33:18.811Z,3.39
2023-03-05T03:36:21.443Z,3.36
2023-03-05T03:39:25.548Z,3.38
2023-03-05T03:42:28.201Z,3.35
2023-03-05T03:45:30.664Z,3.24
2023-03-05T03:48:33.916Z,3.38
2023-03-05T03:51:36.289Z,3.32
2023-03-05T03:54:38.984Z,3.36
2023-03-05T03:57:41.262Z,3.10
2023-03-05T04:00:44.087Z,3.32
2023-03-05T04:03:47.153Z,3.46
2023-03-05T04:06:49.554Z,3.44
2023-03-05T04:09:52.387Z,3.34
2023-03-05T04:12:54.705Z,3.55
2023-03-05T04:15:58.827Z,3.36
2023-03-05T04:19:01.264Z,3.48
2023-03-05T04:22:04.049Z,3.41
2023-03-05T04:25:08.389Z,3.33
2023-03-05T04:28:11.962Z,3.43
2023-03-05T04:31:14.372Z,3.42
2023-03-05T04:34:17.131Z,3.53
2023-03-05T04:37:19.537Z,3.55
2023-03-05T04:40:22.260Z,3.49
2023-03-05T04:43:24.637Z,3.57
2023-03-05T04:46:27.372Z,3.38
2023-03-05T04:49:29.934Z,3.48
2023-03-05T04:52:32.861Z,3.51
2023-03-05T04:55:35.153Z,3.58
2023-03-05T04:58:37.759Z,3.61
2023-03-05T05:01:40.191Z,3.65
2023-03-05T05:04:45.186Z,3.56
2023-03-05T05:07:47.657Z,3.71
2023-03-05T05:11:01.624Z,3.79
2023-03-05T05:14:04.331Z,3.73
2023-03-05T05:17:07.361Z,3.83
2023-03-05T05:20:12.492Z,3.79
2023-03-05T05:23:15.600Z,3.96
2023-03-05T05:26:17.954Z,3.92
2023-03-05T05:29:20.625Z,3.81
2023-03-05T05:32:24.459Z,3.95
2023-03-05T05:35:27.163Z,4.00
2023-03-05T05:38:29.554Z,4.00
2023-03-05T05:41:32.336Z,3.97
2023-03-05T05:44:34.982Z,4.00
2023-03-05T05:47:37.853Z,3.86
2023-03-05T05:50:41.170Z,3.93
2023-03-05T05:53:44.316Z,3.87
2023-03-05T05:56:46.652Z,4.13
2023-03-05T05:59:49.361Z,4.05
2023-03-05T06:02:51.865Z,4.18
2023-03-05T06:05:54.675Z,3.93
2023-03-05T06:08:57.448Z,4.21
2023-03-05T06:12:00.182Z,4.21
2023-03-05T06:15:02.534Z,4.12
2023-03-05T06:18:05.317Z,4.17
2023-03-05T06:21:11.994Z,4.25
2023-03-05T06:24:14.653Z,4.20
2023-03-05T06:27:16.998Z,4.27
2023-03-05T06:30:20.692Z,4.29
2023-03-05T06:33:23.088Z,4.32
2023-03-05T06:36:26.090Z,4.42
2023-03-05T06:39:28.428Z,4.42
2023-03-05T06:42:31.154Z,4.47
2023-03-05T06:45:33.514Z,4.43
2023-03-05T06:48:36.405Z,4.57
2023-03-05T06:51:40.558Z,4.53
2023-03-05T06:54:43.245Z,4.53
2023-03-05T06:57:45.765Z,4.61
2023-03-05T07:00:48.458Z,4.70
2023-03-05T07:03:55.440Z,4.62
2023-03-05T07:06:59.202Z,4.53
2023-03-05T07:10:01.841Z,4.73
2023-03-05T07:13:04.520Z,4.54
2023-03-05T07:16:09.107Z,4.77
2023-03-05T07:19:11.840Z,4.81
2023-03-05T07:22:14.210Z,4.80
2023-03-05T07:25:21.609Z,4.80
2023-03-05T07:28:23.967Z,4.76
2023-03-05T07:31:30.919Z,4.76
2023-03-05T07:34:33.314Z,4.82
2023-03-05T07:37:36.013Z,4.88
2023-03-05T07:40:38.400Z,4.73
2023-03-05T07:43:41.192Z,4.79
2023-03-05T07:46:44.595Z,4.99
2023-03-05T07:49:47.269Z,4.84
2023-03-05T07:52:49.563Z,4.80
2023-03-05T07:55:52.428Z,4.97
2023-03-05T07:58:54.772Z,5.02
2023-03-05T08:01:57.969Z,4.87
2023-03-05T08:05:00.771Z,4.92
2023-03-05T08:08:03.543Z,4.96
2023-03-05T08:11:08.581Z,4.88
2023-03-05T08:14:12.007Z,4.96
2023-03-05T08:17:14.747Z,5.06
2023-03-05T08:20:17.229Z,4.94
2023-03-05T08:23:19.871Z,5.11
2023-03-05T08:26:24.555Z,5.09
2023-03-05T08:29:27.367Z,5.04
2023-03-05T08:32:29.869Z,5.18
2023-03-05T08:35:34.762Z,5.30
2023-03-05T08:38:37.501Z,5.32
2023-03-05T08:41:40.228Z,5.54
2023-03-05T08:44:42.623Z,5.46
2023-03-05T08:47:45.265Z,5.51
2023-03-05T08:50:48.236Z,5.66
2023-03-05T08:53:50.910Z,5.60
2023-03-05T08:56:53.441Z,5.62
2023-03-05T08:59:56.117Z,5.72
2023-03-05T09:02:58.619Z,5.65
2023-03-05T09:06:03.479Z,5.81
2023-03-05T09:09:07.719Z,5.80
2023-03-05T09:12:12.316Z,5.77
2023-03-05T09:15:14.827Z,5.84
2023-03-05T09:18:17.548Z,5.82
2023-03-05T09:21:19.971Z,6.07
2023-03-05T09:24:22.658Z,6.03
2023-03-05T09:27:25.022Z,6.22
2023-03-05T09:30:27.816Z,6.20
2023-03-05T09:33:31.937Z,6.32
2023-03-05T09:36:34.766Z,6.33
2023-03-05T09:39:37.219Z,6.35
2023-03-05T09:42:42.733Z,6.50
2023-03-05T09:46:03.158Z,6.57
2023-03-05T09:49:17.948Z,6.54
2023-03-05T09:52:23.691Z,6.66
2023-03-05T09:55:40.463Z,6.70
2023-03-05T09:58:48.404Z,6.67
2023-03-05T10:01:53.128Z,6.58
2023-03-05T10:05:17.245Z,6.55
2023-03-05T10:08:25.183Z,6.62
2023-03-05T10:11:39.659Z,6.79
2023-03-05T10:14:42.240Z,6.68
2023-03-05T10:18:16.598Z,6.83
2023-03-05T10:21:27.293Z,7.05
2023-03-05T10:25:18.469Z,6.71
2023-03-05T10:28:29.666Z,6.74
2023-03-05T10:31:48.024Z,6.83
2023-03-05T10:35:12.287Z,6.70
2023-03-05T10:38:36.978Z,6.84
2023-03-05T10:42:10.442Z,6.67
2023-03-05T10:45:36.792Z,6.70
2023-03-05T10:48:50.965Z,6.58
2023-03-05T10:51:59.297Z,6.73
2023-03-05T10:55:02.019Z,6.87
2023-03-05T10:58:15.782Z,6.98
2023-03-05T11:01:18.148Z,6.66
2023-03-05T11:04:30.060Z,6.39
2023-03-05T11:07:35.795Z,6.67
2023-03-05T11:10:38.478Z,6.54
2023-03-05T11:13:54.882Z,6.68
2023-03-05T11:16:57.883Z,6.73
2023-03-05T11:20:28.856Z,6.44
2023-03-05T11:23:31.526Z,6.49
2023-03-05T11:26:34.185Z,6.67
2023-03-05T11:29:48.380Z,6.87
2023-03-05T11:32:51.012Z,6.65
2023-03-05T11:36:11.266Z,6.58
2023-03-05T11:39:19.423Z,6.62
2023-03-05T11:42:25.230Z,6.74
2023-03-05T11:45:29.367Z,6.71
2023-03-05T11:48:42.575Z,6.43
2023-03-05T11:51:57.553Z,6.42
2023-03-05T11:55:16.007Z,6.59
2023-03-05T11:58:30.204Z,6.67
2023-03-05T12:01:40.345Z,6.69
2023-03-05T12:04:43.060Z,6.92
2023-03-05T12:07:50.095Z,7.03
2023-03-05T12:10:53.034Z,6.90
2023-03-05T12:14:00.822Z,6.86
2023-03-05T12:17:28.437Z,7.09
2023-03-05T12:20:38.130Z,7.03
2023-03-05T12:23:55.552Z,7.03
2023-03-05T12:27:03.980Z,6.82
2023-03-05T12:30:32.543Z,6.79
2023-03-05T12:33:36.561Z,7.15
2023-03-05T12:36:39.764Z,7.29
2023-03-05T12:39:51.056Z,7.25
2023-03-05T12:43:26.750Z,7.46
2023-03-05T12:46:29.744Z,7.56
2023-03-05T12:49:39.755Z,7.89
2023-03-05T12:52:45.967Z,7.96
2023-03-05T12:56:02.371Z,8.01
2023-03-05T12:59:05.031Z,7.69
2023-03-05T13:02:21.953Z,7.97
2023-03-05T13:05:37.420Z,7.58
2023-03-05T13:08:40.088Z,7.73
2023-03-05T13:11:45.144Z,7.63
2023-03-05T13:14:57.053Z,7.28
2023-03-05T13:18:03.394Z,7.31
2023-03-05T13:21:07.889Z,7.33
2023-03-05T13:24:18.480Z,7.24
2023-03-05T13:27:32.421Z,7.36
2023-03-05T13:30:34.963Z,7.49
2023-03-05T13:33:38.102Z,7.51
2023-03-05T13:36:45.351Z,7.61
2023-03-05T13:39:56.369Z,7.31
2023-03-05T13:43:20.731Z,7.57
2023-03-05T13:46:42.172Z,7.51
2023-03-05T13:49:47.242Z,7.39
2023-03-05T13:52:50.233Z,7.35
2023-03-05T13:55:56.523Z,7.17
2023-03-05T13:58:59.408Z,6.99
2023-03-05T14:02:06.001Z,6.79
2023-03-05T14:05:15.316Z,6.80
2023-03-05T14:08:23.988Z,6.75
2023-03-05T14:11:26.749Z,6.50
2023-03-05T14:14:31.646Z,6.57
2023-03-05T14:17:39.096Z,6.69
2023-03-05T14:21:01.549Z,6.45
2023-03-05T14:24:14.485Z,6.55
2023-03-05T14:27:21.174Z,6.56
2023-03-05T14:30:25.656Z,6.65
2023-03-05T14:33:31.520Z,6.58
2023-03-05T14:36:34.898Z,6.46
2023-03-05T14:39:55.175Z,6.38
2023-03-05T14:43:00.411Z,6.52
2023-03-05T14:46:04.532Z,6.53
2023-03-05T14:49:07.223Z,6.51
2023-03-05T14:52:15.369Z,6.63
2023-03-05T14:55:20.645Z,6.52
2023-03-05T14:58:26.313Z,6.58
2023-03-05T15:01:29.097Z,6.35
2023-03-05T15:04:31.493Z,6.44
2023-03-05T15:07:34.265Z,6.43
2023-03-05T15:10:36.630Z,6.50
2023-03-05T15:13:39.418Z,6.29
2023-03-05T15:16:44.445Z,6.48
2023-03-05T15:19:47.541Z,6.39
2023-03-05T15:22:50.227Z,6.41
2023-03-05T15:25:52.936Z,6.61
2023-03-05T15:28:55.329Z,6.57
2023-03-05T15:31:58.326Z,6.47
2023-03-05T15:35:00.896Z,6.29
2023-03-05T15:38:03.978Z,6.03
2023-03-05T15:41:06.517Z,6.06
2023-03-05T15:44:09.201Z,5.98
2023-03-05T15:47:11.592Z,5.86
2023-03-05T15:50:14.232Z,5.95
2023-03-05T15:53:16.625Z,5.91
2023-03-05T15:56:19.838Z,6.01
2023-03-05T15:59:22.197Z,5.86
2023-03-05T16:02:25.197Z,5.77
2023-03-05T16:05:27.914Z,5.73
2023-03-05T16:08:30.292Z,5.73
2023-03-05T16:11:37.224Z,5.65
2023-03-05T16:14:40.558Z,5.74
2023-03-05T16:17:45.458Z,5.64
2023-03-05T16:20:47.890Z,5.54
2023-03-05T16:23:50.522Z,5.61
2023-03-05T16:26:53.110Z,5.51
2023-03-05T16:29:56.320Z,5.36
2023-03-05T16:32:59.590Z,5.29
2023-03-05T16:36:14.294Z,5.25
2023-03-05T16:39:16.660Z,5.18
2023-03-05T16:42:19.318Z,5.22
2023-03-05T16:45:21.777Z,5.18
2023-03-05T16:48:24.382Z,5.24
2023-03-05T16:51:27.505Z,5.26
2023-03-05T16:54:30.157Z,5.21
2023-03-05T16:57:32.668Z,5.16
2023-03-05T17:00:35.432Z,4.97
2023-03-05T17:03:41.296Z,5.11
2023-03-05T17:06:46.923Z,5.08
2023-03-05T17:09:50.471Z,5.10
2023-03-05T17:12:53.303Z,5.16
2023-03-05T17:15:57.089Z,5.14
2023-03-05T17:19:00.346Z,5.00
2023-03-05T17:22:04.316Z,4.98
2023-03-05T17:25:07.685Z,4.76
2023-03-05T17:28:10.655Z,4.90
2023-03-05T17:31:14.383Z,4.85
2023-03-05T17:34:18.422Z,4.82
2023-03-05T17:37:26.826Z,4.86
2023-03-05T17:40:29.402Z,4.79
2023-03-05T17:43:32.138Z,4.85
2023-03-05T17:46:34.567Z,4.99
2023-03-05T17:49:37.226Z,5.02
2023-03-05T17:52:41.112Z,4.99
2023-03-05T17:55:43.745Z,4.95
2023-03-05T17:58:46.152Z,5.08
2023-03-05T18:01:48.964Z,5.08
2023-03-05T18:04:52.162Z,4.90
2023-03-05T18:07:55.610Z,5.18
2023-03-05T18:10:58.286Z,5.11
2023-03-05T18:14:00.868Z,5.16
2023-03-05T18:17:03.604Z,5.05
2023-03-05T18:20:07.386Z,5.07
2023-03-05T18:23:10.947Z,5.21
2023-03-05T18:26:13.655Z,5.12
2023-03-05T18:29:18.641Z,4.74
2023-03-05T18:32:24.428Z,5.10
2023-03-05T18:35:29.261Z,5.17
2023-03-05T18:38:32.119Z,5.21
2023-03-05T18:41:34.747Z,4.96
2023-03-05T18:44:37.183Z,5.03
2023-03-05T18:47:42.055Z,5.10
2023-03-05T18:50:44.696Z,5.11
2023-03-05T18:53:47.924Z,4.92
2023-03-05T18:56:50.285Z,4.70
2023-03-05T18:59:55.233Z,4.70
2023-03-05T19:02:58.115Z,4.70
2023-03-05T19:06:00.902Z,4.78
2023-03-05T19:09:59.757Z,4.75
2023-03-05T19:13:43.664Z,4.78
2023-03-05T19:16:46.129Z,4.72
2023-03-05T19:19:53.546Z,4.69
2023-03-05T19:22:57.998Z,4.91
2023-03-05T19:26:02.134Z,4.81
2023-03-05T19:29:05.427Z,4.89
2023-03-05T19:32:10.544Z,4.86
2023-03-05T19:35:17.436Z,4.79
2023-03-05T19:38:20.280Z,4.75
2023-03-05T19:41:22.954Z,4.83
2023-03-05T19:44:26.248Z,4.74
2023-03-05T19:47:28.735Z,4.74
2023-03-05T19:50:33.467Z,4.81
2023-03-05T19:53:36.763Z,4.77
2023-03-05T19:56:40.642Z,4.71
2023-03-05T19:59:44.167Z,4.67
2023-03-05T20:02:48.644Z,4.54
2023-03-05T20:05:51.267Z,4.70
2023-03-05T20:08:54.396Z,4.71
2023-03-05T20:11:59.387Z,4.75
2023-03-05T20:15:02.021Z,4.71
2023-03-05T20:18:04.732Z,4.58
2023-03-05T20:21:08.226Z,4.55
2023-03-05T20:24:13.489Z,4.76
2023-03-05T20:27:15.823Z,4.85
2023-03-05T20:30:19.206Z,4.85
2023-03-05T20:33:22.106Z,4.75
2023-03-05T20:36:24.825Z,4.65
2023-03-05T20:39:27.246Z,4.75
2023-03-05T20:42:29.858Z,4.73
2023-03-05T20:45:34.162Z,4.64
2023-03-05T20:48:39.588Z,4.55
2023-03-05T20:51:42.005Z,4.56
2023-03-05T20:54:47.684Z,4.55
2023-03-05T20:57:50.148Z,4.53
2023-03-05T21:00:53.446Z,4.52
2023-03-05T21:03:59.779Z,4.62
2023-03-05T21:07:05.336Z,4.63
2023-03-05T21:10:07.832Z,4.54
2023-03-05T21:13:10.590Z,4.60
2023-03-05T21:16:22.644Z,4.67
2023-03-05T21:19:25.398Z,4.74
2023-03-05T21:22:27.838Z,4.71
2023-03-05T21:25:35.041Z,4.56
2023-03-05T21:28:39.882Z,4.45
2023-03-05T21:31:42.685Z,4.64
2023-03-05T21:34:46.463Z,4.66
2023-03-05T21:37:49.272Z,4.61
2023-03-05T21:40:53.917Z,4.46
2023-03-05T21:43:57.485Z,4.51
2023-03-05T21:46:59.889Z,4.46
2023-03-05T21:50:03.144Z,4.59
2023-03-05T21:53:05.636Z,4.53
2023-03-05T21:56:34.619Z,4.52
2023-03-05T21:59:41.324Z,4.56
2023-03-05T22:02:44.085Z,4.43
2023-03-05T22:05:46.747Z,4.37
2023-03-05T22:08:49.210Z,4.32
2023-03-05T22:11:51.912Z,4.35
2023-03-05T22:14:54.226Z,4.23
2023-03-05T22:17:57.002Z,4.29
2023-03-05T22:21:00.378Z,4.32
2023-03-05T22:24:03.066Z,4.25
2023-03-05T22:27:05.459Z,4.28
2023-03-05T22:30:09.878Z,4.45
2023-03-05T22:33:12.679Z,4.42
2023-03-05T22:36:15.816Z,4.35
2023-03-05T22:39:18.298Z,4.27
2023-03-05T22:42:21.104Z,4.29
2023-03-05T22:45:23.514Z,4.28
2023-03-05T22:48:26.274Z,4.22
2023-03-05T22:51:28.614Z,4.21
2023-03-05T22:54:31.294Z,4.35
2023-03-05T22:57:33.971Z,4.37
2023-03-05T23:00:36.668Z,4.31
2023-03-05T23:03:39.816Z,4.35
2023-03-05T23:06:42.478Z,4.36
2023-03-05T23:09:45.576Z,4.41
2023-03-05T23:12:52.101Z,4.43
2023-03-05T23:15:54.573Z,4.46
2023-03-05T23:18:57.504Z,4.47
2023-03-05T23:21:59.789Z,4.50
2023-03-05T23:25:02.624Z,4.48
2023-03-05T23:28:05.306Z,4.46
2023-03-05T23:31:08.057Z,4.51
2023-03-05T23:34:10.464Z,4.43
2023-03-05T23:37:13.062Z,4.38
2023-03-05T23:40:20.263Z,4.44
2023-03-05T23:43:24.920Z,4.44
2023-03-05T23:46:27.550Z,4.44
2023-03-05T23:49:30.404Z,4.44
2023-03-05T23:52:33.537Z,4.62
2023-03-05T23:55:40.706Z,4.60
2023-03-05T23:58:43.077Z,4.62
